sensor_id;sensor_type;location;lat;lon;timestamp;pressure;altitude;pressure_sealevel;temperature;humidity
53932;BME280;39844;52.496;13.482;2024-01-15T00:01:08;99182.00;;;2.45;97.67
53932;BME280;39844;52.496;13.482;2024-01-15T00:03:34;99171.63;;;2.45;97.66
53932;BME280;39844;52.496;13.482;2024-01-15T00:05:59;99182.00;;;2.44;97.64
53932;BME280;39844;52.496;13.482;2024-01-15T00:08:24;99168.16;;;2.42;98.01
53932;BME280;39844;52.496;13.482;2024-01-15T00:10:50;99171.63;;;2.41;98.17
53932;BME280;39844;52.496;13.482;2024-01-15T00:13:15;99154.34;;;2.37;98.67
53932;BME280;39844;52.496;13.482;2024-01-15T00:15:40;99159.53;;;2.34;99.18
53932;BME280;39844;52.496;13.482;2024-01-15T00:18:06;99150.00;;;2.30;100.00
53932;BME280;39844;52.496;13.482;2024-01-15T00:20:31;99157.78;;;2.28;100.00
53932;BME280;39844;52.496;13.482;2024-01-15T00:22:56;99138.78;;;2.28;100.00
53932;BME280;39844;52.496;13.482;2024-01-15T00:25:22;99140.50;;;2.27;100.00
53932;BME280;39844;52.496;13.482;2024-01-15T00:27:47;99140.50;;;2.26;100.00
53932;BME280;39844;52.496;13.482;2024-01-15T00:30:13;99133.59;;;2.26;100.00
53932;BME280;39844;52.496;13.482;2024-01-15T00:32:38;99123.22;;;2.26;100.00
53932;BME280;39844;52.496;13.482;2024-01-15T00:35:04;99120.66;;;2.26;100.00
53932;BME280;39844;52.496;13.482;2024-01-15T00:37:29;99118.94;;;2.28;99.89
53932;BME280;39844;52.496;13.482;2024-01-15T00:39:54;99103.44;;;2.28;99.54
53932;BME280;39844;52.496;13.482;2024-01-15T00:42:20;99084.44;;;2.29;99.23
53932;BME280;39844;52.496;13.482;2024-01-15T00:44:45;99106.00;;;2.30;99.05
53932;BME280;39844;52.496;13.482;2024-01-15T00:47:10;99103.44;;;2.31;98.62
53932;BME280;39844;52.496;13.482;2024-01-15T00:49:36;99100.84;;;2.31;98.22
53932;BME280;39844;52.496;13.482;2024-01-15T00:52:01;99097.41;;;2.34;98.11
53932;BME280;39844;52.496;13.482;2024-01-15T00:54:26;99081.00;;;2.33;98.47
53932;BME280;39844;52.496;13.482;2024-01-15T00:56:52;99082.72;;;2.34;98.06
53932;BME280;39844;52.496;13.482;2024-01-15T00:59:17;99087.88;;;2.34;97.90
53932;BME280;39844;52.496;13.482;2024-01-15T01:01:43;99081.88;;;2.34;97.66
53932;BME280;39844;52.496;13.482;2024-01-15T01:04:11;99081.88;;;2.34;97.48
53932;BME280;39844;52.496;13.482;2024-01-15T01:06:37;99075.81;;;2.32;97.30
53932;BME280;39844;52.496;13.482;2024-01-15T01:09:02;99088.72;;;2.29;97.95
53932;BME280;39844;52.496;13.482;2024-01-15T01:11:28;99075.81;;;2.27;98.50
53932;BME280;39844;52.496;13.482;2024-01-15T01:13:53;99067.16;;;2.22;98.94
53932;BME280;39844;52.496;13.482;2024-01-15T01:16:18;99068.88;;;2.20;99.44
53932;BME280;39844;52.496;13.482;2024-01-15T01:18:43;99062.84;;;2.18;99.81
53932;BME280;39844;52.496;13.482;2024-01-15T01:21:09;99068.84;;;2.14;100.00
53932;BME280;39844;52.496;13.482;2024-01-15T01:23:34;99072.31;;;2.10;100.00
53932;BME280;39844;52.496;13.482;2024-01-15T01:25:59;99080.03;;;2.04;100.00
53932;BME280;39844;52.496;13.482;2024-01-15T01:28:25;99089.50;;;1.99;100.00
53932;BME280;39844;52.496;13.482;2024-01-15T01:30:50;99087.81;;;1.98;100.00
53932;BME280;39844;52.496;13.482;2024-01-15T01:33:15;99080.88;;;1.97;100.00
53932;BME280;39844;52.496;13.482;2024-01-15T01:35:41;99086.06;;;1.99;100.00
53932;BME280;39844;52.496;13.482;2024-01-15T01:38:06;99083.47;;;1.97;100.00
53932;BME280;39844;52.496;13.482;2024-01-15T01:40:31;99078.28;;;1.94;100.00
53932;BME280;39844;52.496;13.482;2024-01-15T01:42:56;99076.56;;;1.91;100.00
53932;BME280;39844;52.496;13.482;2024-01-15T01:45:22;99079.16;;;1.90;100.00
53932;BME280;39844;52.496;13.482;2024-01-15T01:47:47;99089.50;;;1.90;100.00
53932;BME280;39844;52.496;13.482;2024-01-15T01:50:13;99086.88;;;1.87;100.00
53932;BME280;39844;52.496;13.482;2024-01-15T01:52:39;99081.66;;;1.81;100.00
53932;BME280;39844;52.496;13.482;2024-01-15T01:55:06;99071.31;;;1.75;100.00
53932;BME280;39844;52.496;13.482;2024-01-15T01:57:33;99070.44;;;1.70;100.00
53932;BME280;39844;52.496;13.482;2024-01-15T02:00:00;99075.59;;;1.70;100.00
53932;BME280;39844;52.496;13.482;2024-01-15T02:02:26;99073.88;;;1.69;100.00
53932;BME280;39844;52.496;13.482;2024-01-15T02:04:52;99081.63;;;1.67;100.00
53932;BME280;39844;52.496;13.482;2024-01-15T02:07:17;99079.03;;;1.69;100.00
53932;BME280;39844;52.496;13.482;2024-01-15T02:09:43;99074.75;;;1.72;100.00
53932;BME280;39844;52.496;13.482;2024-01-15T02:12:09;99086.81;;;1.72;100.00
53932;BME280;39844;52.496;13.482;2024-01-15T02:14:34;99060.94;;;1.73;100.00
53932;BME280;39844;52.496;13.482;2024-01-15T02:17:00;99066.16;;;1.76;100.00
53932;BME280;39844;52.496;13.482;2024-01-15T02:19:25;99052.34;;;1.74;100.00
53932;BME280;39844;52.496;13.482;2024-01-15T02:21:50;99060.94;;;1.73;100.00
53932;BME280;39844;52.496;13.482;2024-01-15T02:24:16;99063.53;;;1.72;100.00
53932;BME280;39844;52.496;13.482;2024-01-15T02:26:41;99066.97;;;1.71;100.00
53932;BME280;39844;52.496;13.482;2024-01-15T02:29:10;99063.53;;;1.72;100.00
53932;BME280;39844;52.496;13.482;2024-01-15T02:31:37;99078.19;;;1.71;100.00
53932;BME280;39844;52.496;13.482;2024-01-15T02:34:02;99066.13;;;1.72;100.00
53932;BME280;39844;52.496;13.482;2024-01-15T02:36:27;99076.50;;;1.75;100.00
53932;BME280;39844;52.496;13.482;2024-01-15T02:38:53;99060.09;;;1.76;100.00
53932;BME280;39844;52.496;13.482;2024-01-15T02:41:18;99045.47;;;1.78;100.00
53932;BME280;39844;52.496;13.482;2024-01-15T02:43:43;99040.31;;;1.79;100.00
53932;BME280;39844;52.496;13.482;2024-01-15T02:46:09;99042.88;;;1.81;100.00
53932;BME280;39844;52.496;13.482;2024-01-15T02:48:34;99042.88;;;1.81;100.00
53932;BME280;39844;52.496;13.482;2024-01-15T02:50:59;99038.59;;;1.81;99.70
53932;BME280;39844;52.496;13.482;2024-01-15T02:53:24;99042.03;;;1.82;99.57
53932;BME280;39844;52.496;13.482;2024-01-15T02:55:50;99049.78;;;1.82;99.11
53932;BME280;39844;52.496;13.482;2024-01-15T02:58:15;99044.63;;;1.82;98.70
53932;BME280;39844;52.496;13.482;2024-01-15T03:00:40;99032.56;;;1.84;98.65
53932;BME280;39844;52.496;13.482;2024-01-15T03:03:06;99026.50;;;1.83;98.40
53932;BME280;39844;52.496;13.482;2024-01-15T03:05:31;99037.72;;;1.84;98.65
53932;BME280;39844;52.496;13.482;2024-01-15T03:07:56;99030.84;;;1.84;98.65
53932;BME280;39844;52.496;13.482;2024-01-15T03:10:21;99027.38;;;1.84;98.68
53932;BME280;39844;52.496;13.482;2024-01-15T03:12:47;99034.28;;;1.85;98.55
53932;BME280;39844;52.496;13.482;2024-01-15T03:15:12;99023.94;;;1.85;98.38
53932;BME280;39844;52.496;13.482;2024-01-15T03:17:37;99030.84;;;1.84;97.36
53932;BME280;39844;52.496;13.482;2024-01-15T03:20:03;99023.97;;;1.88;97.21
53932;BME280;39844;52.496;13.482;2024-01-15T03:22:28;99029.13;;;1.91;95.05
53932;BME280;39844;52.496;13.482;2024-01-15T03:24:54;99028.25;;;1.93;94.98
53932;BME280;39844;52.496;13.482;2024-01-15T03:27:19;99021.38;;;1.94;95.43
53932;BME280;39844;52.496;13.482;2024-01-15T03:29:45;99031.75;;;1.96;95.34
53932;BME280;39844;52.496;13.482;2024-01-15T03:32:10;99023.13;;;1.95;94.88
53932;BME280;39844;52.496;13.482;2024-01-15T03:34:35;99028.28;;;1.95;94.94
53932;BME280;39844;52.496;13.482;2024-01-15T03:37:01;99029.13;;;1.94;95.04
53932;BME280;39844;52.496;13.482;2024-01-15T03:39:26;99005.00;;;1.92;95.00
53932;BME280;39844;52.496;13.482;2024-01-15T03:41:51;99017.91;;;1.93;94.86
53932;BME280;39844;52.496;13.482;2024-01-15T03:44:16;99022.25;;;1.93;94.77
53932;BME280;39844;52.496;13.482;2024-01-15T03:46:42;99026.56;;;1.92;94.67
53932;BME280;39844;52.496;13.482;2024-01-15T03:49:07;99014.47;;;1.95;94.13
53932;BME280;39844;52.496;13.482;2024-01-15T03:51:32;98998.97;;;1.96;93.55
53932;BME280;39844;52.496;13.482;2024-01-15T03:53:58;99000.69;;;1.96;93.93
53932;BME280;39844;52.496;13.482;2024-01-15T03:56:23;99014.47;;;1.96;94.00
53932;BME280;39844;52.496;13.482;2024-01-15T03:58:48;99009.31;;;1.98;93.30
53932;BME280;39844;52.496;13.482;2024-01-15T04:01:13;98998.09;;;1.99;93.02
53932;BME280;39844;52.496;13.482;2024-01-15T04:03:39;98983.44;;;1.99;92.69
53932;BME280;39844;52.496;13.482;2024-01-15T04:06:04;98982.59;;;2.00;92.72
53932;BME280;39844;52.496;13.482;2024-01-15T04:08:30;98984.31;;;2.04;92.25
53932;BME280;39844;52.496;13.482;2024-01-15T04:10:55;98971.38;;;2.04;92.23
53932;BME280;39844;52.496;13.482;2024-01-15T04:13:21;98972.25;;;2.03;92.52
53932;BME280;39844;52.496;13.482;2024-01-15T04:15:46;98959.31;;;2.02;92.80
53932;BME280;39844;52.496;13.482;2024-01-15T04:18:11;98940.31;;;2.01;92.89
53932;BME280;39844;52.496;13.482;2024-01-15T04:20:37;98947.25;;;2.02;92.56
53932;BME280;39844;52.496;13.482;2024-01-15T04:23:02;98967.09;;;2.03;92.46
53932;BME280;39844;52.496;13.482;2024-01-15T04:25:27;98956.72;;;2.05;92.17
53932;BME280;39844;52.496;13.482;2024-01-15T04:27:53;98959.31;;;2.06;91.67
53932;BME280;39844;52.496;13.482;2024-01-15T04:30:18;98953.28;;;2.07;91.57
53932;BME280;39844;52.496;13.482;2024-01-15T04:32:43;98964.50;;;2.08;91.39
53932;BME280;39844;52.496;13.482;2024-01-15T04:35:09;98967.94;;;2.10;90.96
53932;BME280;39844;52.496;13.482;2024-01-15T04:37:34;98963.66;;;2.13;90.86
53932;BME280;39844;52.496;13.482;2024-01-15T04:39:59;98974.00;;;2.15;90.30
53932;BME280;39844;52.496;13.482;2024-01-15T04:42:25;98961.94;;;2.18;89.40
53932;BME280;39844;52.496;13.482;2024-01-15T04:44:50;98958.47;;;2.19;89.56
53932;BME280;39844;52.496;13.482;2024-01-15T04:47:15;98946.38;;;2.21;88.80
53932;BME280;39844;52.496;13.482;2024-01-15T04:49:40;98941.22;;;2.21;88.87
53932;BME280;39844;52.496;13.482;2024-01-15T04:52:06;98949.84;;;2.20;88.98
53932;BME280;39844;52.496;13.482;2024-01-15T04:54:31;98940.38;;;2.21;88.88
53932;BME280;39844;52.496;13.482;2024-01-15T04:56:57;98949.84;;;2.19;88.97
53932;BME280;39844;52.496;13.482;2024-01-15T04:59:22;98944.66;;;2.17;88.71
53932;BME280;39844;52.496;13.482;2024-01-15T05:01:48;98926.56;;;2.16;88.73
53932;BME280;39844;52.496;13.482;2024-01-15T05:04:13;98936.91;;;2.16;88.44
53932;BME280;39844;52.496;13.482;2024-01-15T05:06:39;98939.50;;;2.20;87.80
53932;BME280;39844;52.496;13.482;2024-01-15T05:09:04;98945.53;;;2.22;88.07
53932;BME280;39844;52.496;13.482;2024-01-15T05:11:29;98941.22;;;2.27;87.04
53932;BME280;39844;52.496;13.482;2024-01-15T05:13:55;98933.44;;;2.29;87.13
53932;BME280;39844;52.496;13.482;2024-01-15T05:16:20;98932.59;;;2.30;86.69
53932;BME280;39844;52.496;13.482;2024-01-15T05:18:45;98944.66;;;2.29;87.36
53932;BME280;39844;52.496;13.482;2024-01-15T05:21:11;98942.97;;;2.28;87.82
53932;BME280;39844;52.496;13.482;2024-01-15T05:23:36;98937.78;;;2.30;87.94
53932;BME280;39844;52.496;13.482;2024-01-15T05:26:01;98940.38;;;2.28;88.72
53932;BME280;39844;52.496;13.482;2024-01-15T05:28:26;98943.78;;;2.29;88.86
53932;BME280;39844;52.496;13.482;2024-01-15T05:30:52;98940.34;;;2.27;89.13
53932;BME280;39844;52.496;13.482;2024-01-15T05:33:17;98936.91;;;2.25;89.55
53932;BME280;39844;52.496;13.482;2024-01-15T05:35:43;98948.13;;;2.25;89.48
53932;BME280;39844;52.496;13.482;2024-01-15T05:38:08;98922.25;;;2.25;89.45
53932;BME280;39844;52.496;13.482;2024-01-15T05:40:33;98922.22;;;2.27;89.27
53932;BME280;39844;52.496;13.482;2024-01-15T05:42:59;98904.97;;;2.24;89.41
53932;BME280;39844;52.496;13.482;2024-01-15T05:45:26;98910.19;;;2.26;89.25
53932;BME280;39844;52.496;13.482;2024-01-15T05:47:52;98904.13;;;2.30;88.51
53932;BME280;39844;52.496;13.482;2024-01-15T05:50:17;98919.69;;;2.31;88.92
53932;BME280;39844;52.496;13.482;2024-01-15T05:52:42;98912.75;;;2.32;88.34
53932;BME280;39844;52.496;13.482;2024-01-15T05:55:07;98907.59;;;2.33;88.81
53932;BME280;39844;52.496;13.482;2024-01-15T05:57:33;98914.50;;;2.36;88.56
53932;BME280;39844;52.496;13.482;2024-01-15T05:59:58;98905.84;;;2.35;88.96
53932;BME280;39844;52.496;13.482;2024-01-15T06:02:23;98909.28;;;2.27;90.02
53932;BME280;39844;52.496;13.482;2024-01-15T06:04:49;98918.78;;;2.19;91.58
53932;BME280;39844;52.496;13.482;2024-01-15T06:07:14;98917.94;;;2.11;93.17
53932;BME280;39844;52.496;13.482;2024-01-15T06:09:39;98926.56;;;2.05;94.37
53932;BME280;39844;52.496;13.482;2024-01-15T06:12:06;98917.06;;;2.04;94.69
53932;BME280;39844;52.496;13.482;2024-01-15T06:14:32;98937.75;;;2.04;94.28
53932;BME280;39844;52.496;13.482;2024-01-15T06:16:57;98933.44;;;2.06;94.29
53932;BME280;39844;52.496;13.482;2024-01-15T06:19:22;98928.28;;;2.09;93.78
53932;BME280;39844;52.496;13.482;2024-01-15T06:21:48;98942.94;;;2.13;93.55
53932;BME280;39844;52.496;13.482;2024-01-15T06:24:13;98922.22;;;2.16;93.07
53932;BME280;39844;52.496;13.482;2024-01-15T06:26:39;98911.88;;;2.19;92.21
53932;BME280;39844;52.496;13.482;2024-01-15T06:29:04;98919.66;;;2.22;91.82
53932;BME280;39844;52.496;13.482;2024-01-15T06:31:30;98899.81;;;2.21;91.77
53932;BME280;39844;52.496;13.482;2024-01-15T06:33:55;98910.16;;;2.24;90.89
53932;BME280;39844;52.496;13.482;2024-01-15T06:36:21;98902.41;;;2.27;90.69
53932;BME280;39844;52.496;13.482;2024-01-15T06:38:46;98915.34;;;2.30;91.03
53932;BME280;39844;52.496;13.482;2024-01-15T06:41:11;98912.75;;;2.30;91.26
53932;BME280;39844;52.496;13.482;2024-01-15T06:43:36;98919.66;;;2.28;91.92
53932;BME280;39844;52.496;13.482;2024-01-15T06:46:02;98908.44;;;2.26;92.29
53932;BME280;39844;52.496;13.482;2024-01-15T06:48:27;98911.00;;;2.26;92.31
53932;BME280;39844;52.496;13.482;2024-01-15T06:50:52;98923.09;;;2.27;92.65
53932;BME280;39844;52.496;13.482;2024-01-15T06:53:18;98924.84;;;2.25;92.87
53932;BME280;39844;52.496;13.482;2024-01-15T06:55:43;98919.66;;;2.25;92.80
53932;BME280;39844;52.496;13.482;2024-01-15T06:58:09;98922.25;;;2.25;92.66
53932;BME280;39844;52.496;13.482;2024-01-15T07:00:34;98922.25;;;2.28;92.34
53932;BME280;39844;52.496;13.482;2024-01-15T07:02:59;98936.91;;;2.28;92.50
53932;BME280;39844;52.496;13.482;2024-01-15T07:05:24;98929.13;;;2.29;92.28
53932;BME280;39844;52.496;13.482;2024-01-15T07:07:50;98916.19;;;2.29;91.79
53932;BME280;39844;52.496;13.482;2024-01-15T07:10:15;98920.50;;;2.32;91.33
53932;BME280;39844;52.496;13.482;2024-01-15T07:12:44;98934.31;;;2.32;91.11
53932;BME280;39844;52.496;13.482;2024-01-15T07:15:10;98919.66;;;2.34;90.72
53932;BME280;39844;52.496;13.482;2024-01-15T07:17:35;98923.97;;;2.38;89.98
53932;BME280;39844;52.496;13.482;2024-01-15T07:20:01;98945.53;;;2.42;88.98
53932;BME280;39844;52.496;13.482;2024-01-15T07:22:26;98940.34;;;2.45;88.97
53932;BME280;39844;52.496;13.482;2024-01-15T07:24:51;98950.72;;;2.45;88.37
53932;BME280;39844;52.496;13.482;2024-01-15T07:27:17;98937.75;;;2.49;87.36
53932;BME280;39844;52.496;13.482;2024-01-15T07:29:42;98945.53;;;2.52;86.92
53932;BME280;39844;52.496;13.482;2024-01-15T07:32:08;98948.13;;;2.52;87.09
53932;BME280;39844;52.496;13.482;2024-01-15T07:34:34;98952.44;;;2.53;87.36
53932;BME280;39844;52.496;13.482;2024-01-15T07:36:59;98978.34;;;2.53;87.37
53932;BME280;39844;52.496;13.482;2024-01-15T07:39:24;98948.97;;;2.53;87.01
53932;BME280;39844;52.496;13.482;2024-01-15T07:41:53;98966.25;;;2.55;86.91
53932;BME280;39844;52.496;13.482;2024-01-15T07:44:18;98986.09;;;2.58;86.36
53932;BME280;39844;52.496;13.482;2024-01-15T07:46:44;98992.16;;;2.62;86.15
53932;BME280;39844;52.496;13.482;2024-01-15T07:49:10;98974.00;;;2.65;85.44
53932;BME280;39844;52.496;13.482;2024-01-15T07:51:35;98971.41;;;2.65;85.41
53932;BME280;39844;52.496;13.482;2024-01-15T07:54:01;98965.38;;;2.66;85.52
53932;BME280;39844;52.496;13.482;2024-01-15T07:56:26;98974.00;;;2.68;85.15
53932;BME280;39844;52.496;13.482;2024-01-15T07:58:51;98979.19;;;2.68;85.27
53932;BME280;39844;52.496;13.482;2024-01-15T08:01:16;98967.94;;;2.67;85.53
53932;BME280;39844;52.496;13.482;2024-01-15T08:03:42;98991.28;;;2.66;85.79
53932;BME280;39844;52.496;13.482;2024-01-15T08:06:07;98995.59;;;2.67;86.12
53932;BME280;39844;52.496;13.482;2024-01-15T08:08:32;98988.69;;;2.66;86.04
53932;BME280;39844;52.496;13.482;2024-01-15T08:10:58;98986.09;;;2.69;85.68
53932;BME280;39844;52.496;13.482;2024-01-15T08:13:26;98977.44;;;2.70;85.51
53932;BME280;39844;52.496;13.482;2024-01-15T08:15:51;98986.94;;;2.72;85.18
53932;BME280;39844;52.496;13.482;2024-01-15T08:18:17;98990.41;;;2.73;85.25
53932;BME280;39844;52.496;13.482;2024-01-15T08:20:42;98996.44;;;2.78;84.63
53932;BME280;39844;52.496;13.482;2024-01-15T08:23:07;98998.16;;;2.79;84.44
53932;BME280;39844;52.496;13.482;2024-01-15T08:25:32;98983.50;;;2.76;84.91
53932;BME280;39844;52.496;13.482;2024-01-15T08:27:58;98999.91;;;2.77;84.77
53932;BME280;39844;52.496;13.482;2024-01-15T08:30:23;99002.47;;;2.75;85.23
53932;BME280;39844;52.496;13.482;2024-01-15T08:32:48;98980.03;;;2.76;85.13
53932;BME280;39844;52.496;13.482;2024-01-15T08:35:14;98974.00;;;2.74;85.44
53932;BME280;39844;52.496;13.482;2024-01-15T08:37:39;98990.41;;;2.76;84.80
53932;BME280;39844;52.496;13.482;2024-01-15T08:40:05;98974.84;;;2.77;84.31
53932;BME280;39844;52.496;13.482;2024-01-15T08:42:30;98976.59;;;2.77;85.22
53932;BME280;39844;52.496;13.482;2024-01-15T08:44:55;98991.25;;;2.75;84.99
53932;BME280;39844;52.496;13.482;2024-01-15T08:47:21;98989.53;;;2.74;85.27
53932;BME280;39844;52.496;13.482;2024-01-15T08:49:46;99002.50;;;2.74;85.36
53932;BME280;39844;52.496;13.482;2024-01-15T08:52:11;99006.78;;;2.75;84.88
53932;BME280;39844;52.496;13.482;2024-01-15T08:54:37;98993.00;;;2.74;84.57
53932;BME280;39844;52.496;13.482;2024-01-15T08:57:03;98989.56;;;2.77;84.12
53932;BME280;39844;52.496;13.482;2024-01-15T08:59:28;98990.38;;;2.77;83.95
53932;BME280;39844;52.496;13.482;2024-01-15T09:01:54;98993.00;;;2.79;84.14
53932;BME280;39844;52.496;13.482;2024-01-15T09:04:19;98997.31;;;2.78;84.12
53932;BME280;39844;52.496;13.482;2024-01-15T09:06:45;98993.00;;;2.82;84.15
53932;BME280;39844;52.496;13.482;2024-01-15T09:09:11;98997.31;;;2.81;84.07
53932;BME280;39844;52.496;13.482;2024-01-15T09:11:36;99003.34;;;2.82;83.94
53932;BME280;39844;52.496;13.482;2024-01-15T09:14:01;98995.59;;;2.82;84.11
53932;BME280;39844;52.496;13.482;2024-01-15T09:16:27;99000.75;;;2.83;84.62
53932;BME280;39844;52.496;13.482;2024-01-15T09:18:52;99005.94;;;2.83;84.54
53932;BME280;39844;52.496;13.482;2024-01-15T09:21:17;99002.50;;;2.84;84.72
53932;BME280;39844;52.496;13.482;2024-01-15T09:23:43;98999.00;;;2.82;85.16
53932;BME280;39844;52.496;13.482;2024-01-15T09:26:08;99027.50;;;2.82;84.97
53932;BME280;39844;52.496;13.482;2024-01-15T09:28:33;99019.75;;;2.84;84.94
53932;BME280;39844;52.496;13.482;2024-01-15T09:30:59;99011.13;;;2.86;85.44
53932;BME280;39844;52.496;13.482;2024-01-15T09:33:24;99015.44;;;2.89;85.36
53932;BME280;39844;52.496;13.482;2024-01-15T09:35:49;99046.53;;;2.92;85.21
53932;BME280;39844;52.496;13.482;2024-01-15T09:38:15;99032.69;;;2.93;85.06
53932;BME280;39844;52.496;13.482;2024-01-15T09:40:43;99037.03;;;2.92;84.69
53932;BME280;39844;52.496;13.482;2024-01-15T09:43:11;99038.75;;;2.92;84.82
53932;BME280;39844;52.496;13.482;2024-01-15T09:45:37;99037.03;;;2.92;84.06
53932;BME280;39844;52.496;13.482;2024-01-15T09:48:02;99031.84;;;2.94;83.68
53932;BME280;39844;52.496;13.482;2024-01-15T09:50:28;99030.09;;;2.99;82.62
53932;BME280;39844;52.496;13.482;2024-01-15T09:52:54;99037.00;;;3.01;82.59
53932;BME280;39844;52.496;13.482;2024-01-15T09:55:20;99022.34;;;3.05;82.53
53932;BME280;39844;52.496;13.482;2024-01-15T09:57:46;99032.69;;;3.05;83.02
53932;BME280;39844;52.496;13.482;2024-01-15T10:00:12;99016.25;;;3.06;83.35
53932;BME280;39844;52.496;13.482;2024-01-15T10:02:37;99031.81;;;3.06;83.89
53932;BME280;39844;52.496;13.482;2024-01-15T10:05:03;99009.34;;;3.06;83.82
53932;BME280;39844;52.496;13.482;2024-01-15T10:07:29;99016.25;;;3.06;83.95
53932;BME280;39844;52.496;13.482;2024-01-15T10:09:54;99010.22;;;3.07;83.66
53932;BME280;39844;52.496;13.482;2024-01-15T10:12:22;99011.09;;;3.07;83.92
53932;BME280;39844;52.496;13.482;2024-01-15T10:14:47;99012.81;;;3.10;84.50
53932;BME280;39844;52.496;13.482;2024-01-15T10:17:13;99008.50;;;3.12;83.53
53932;BME280;39844;52.496;13.482;2024-01-15T10:19:38;99006.75;;;3.14;84.05
53932;BME280;39844;52.496;13.482;2024-01-15T10:22:04;99012.81;;;3.17;83.17
53932;BME280;39844;52.496;13.482;2024-01-15T10:24:29;98992.94;;;3.15;82.82
53932;BME280;39844;52.496;13.482;2024-01-15T10:27:05;98999.84;;;3.13;83.39
53932;BME280;39844;52.496;13.482;2024-01-15T10:29:30;99003.28;;;3.16;82.71
53932;BME280;39844;52.496;13.482;2024-01-15T10:31:55;98998.97;;;3.22;82.50
53932;BME280;39844;52.496;13.482;2024-01-15T10:34:21;98998.09;;;3.24;83.08
53932;BME280;39844;52.496;13.482;2024-01-15T10:36:46;99012.75;;;3.28;82.82
53932;BME280;39844;52.496;13.482;2024-01-15T10:39:13;98993.75;;;3.29;82.38
53932;BME280;39844;52.496;13.482;2024-01-15T10:41:38;98998.94;;;3.29;82.05
53932;BME280;39844;52.496;13.482;2024-01-15T10:44:04;98991.16;;;3.29;82.20
53932;BME280;39844;52.496;13.482;2024-01-15T10:46:30;98993.75;;;3.29;82.18
53932;BME280;39844;52.496;13.482;2024-01-15T10:48:56;98998.94;;;3.29;81.76
53932;BME280;39844;52.496;13.482;2024-01-15T10:51:22;98992.00;;;3.28;81.94
53932;BME280;39844;52.496;13.482;2024-01-15T10:53:48;99001.53;;;3.29;81.81
53932;BME280;39844;52.496;13.482;2024-01-15T10:56:14;98992.91;;;3.30;82.01
53932;BME280;39844;52.496;13.482;2024-01-15T10:58:39;99004.13;;;3.29;82.18
53932;BME280;39844;52.496;13.482;2024-01-15T11:01:06;98984.22;;;3.28;81.78
53932;BME280;39844;52.496;13.482;2024-01-15T11:03:32;99012.75;;;3.31;81.71
53932;BME280;39844;52.496;13.482;2024-01-15T11:05:58;98989.41;;;3.34;81.24
53932;BME280;39844;52.496;13.482;2024-01-15T11:08:24;98998.03;;;3.39;81.14
53932;BME280;39844;52.496;13.482;2024-01-15T11:10:51;99025.66;;;3.43;80.95
53932;BME280;39844;52.496;13.482;2024-01-15T11:13:20;98998.88;;;3.49;80.02
53932;BME280;39844;52.496;13.482;2024-01-15T11:16:05;98998.88;;;3.52;79.99
53932;BME280;39844;52.496;13.482;2024-01-15T11:18:35;98993.69;;;3.52;79.38
53932;BME280;39844;52.496;13.482;2024-01-15T11:23:45;98989.38;;;3.46;80.05
53932;BME280;39844;52.496;13.482;2024-01-15T11:26:34;99000.63;;;3.45;79.78
53932;BME280;39844;52.496;13.482;2024-01-15T11:29:01;99000.63;;;3.42;80.40
53932;BME280;39844;52.496;13.482;2024-01-15T11:34:06;99015.34;;;3.37;81.50
53932;BME280;39844;52.496;13.482;2024-01-15T11:42:00;99011.88;;;3.31;82.40
53932;BME280;39844;52.496;13.482;2024-01-15T11:44:26;99015.34;;;3.31;82.97
53932;BME280;39844;52.496;13.482;2024-01-15T11:47:01;99023.13;;;3.28;83.34
53932;BME280;39844;52.496;13.482;2024-01-15T11:49:49;99026.59;;;3.24;84.17
53932;BME280;39844;52.496;13.482;2024-01-15T11:52:22;99027.50;;;3.20;84.88
53932;BME280;39844;52.496;13.482;2024-01-15T11:55:08;99026.63;;;3.10;85.87
53932;BME280;39844;52.496;13.482;2024-01-15T11:57:49;99016.28;;;3.00;87.29
53932;BME280;39844;52.496;13.482;2024-01-15T12:00:15;99024.06;;;2.85;89.19
53932;BME280;39844;52.496;13.482;2024-01-15T12:02:47;99043.91;;;2.68;90.89
53932;BME280;39844;52.496;13.482;2024-01-15T12:05:17;99045.66;;;2.50;92.74
53932;BME280;39844;52.496;13.482;2024-01-15T12:07:51;99049.09;;;2.40;94.57
53932;BME280;39844;52.496;13.482;2024-01-15T12:10:18;99040.44;;;2.35;95.42
53932;BME280;39844;52.496;13.482;2024-01-15T12:15:30;99031.84;;;2.41;94.99
53932;BME280;39844;52.496;13.482;2024-01-15T12:17:58;99050.81;;;2.43;95.04
53932;BME280;39844;52.496;13.482;2024-01-15T12:20:30;99041.34;;;2.46;94.32
53932;BME280;39844;52.496;13.482;2024-01-15T12:23:08;99030.97;;;2.52;93.69
53932;BME280;39844;52.496;13.482;2024-01-15T12:25:41;99034.44;;;2.56;93.54
53932;BME280;39844;52.496;13.482;2024-01-15T12:28:12;99034.44;;;2.58;93.17
53932;BME280;39844;52.496;13.482;2024-01-15T12:30:38;99038.75;;;2.59;92.57
53932;BME280;39844;52.496;13.482;2024-01-15T12:33:22;99040.47;;;2.61;92.33
53932;BME280;39844;52.496;13.482;2024-01-15T12:35:52;99034.41;;;2.62;91.92
53932;BME280;39844;52.496;13.482;2024-01-15T12:38:21;99044.78;;;2.64;91.23
53932;BME280;39844;52.496;13.482;2024-01-15T12:40:53;99030.09;;;2.63;91.52
53932;BME280;39844;52.496;13.482;2024-01-15T12:43:21;99029.25;;;2.61;91.67
53932;BME280;39844;52.496;13.482;2024-01-15T12:45:49;99055.16;;;2.61;91.93
53932;BME280;39844;52.496;13.482;2024-01-15T12:48:15;99052.56;;;2.59;91.91
53932;BME280;39844;52.496;13.482;2024-01-15T12:50:49;99052.56;;;2.51;93.08
53932;BME280;39844;52.496;13.482;2024-01-15T12:53:20;99055.13;;;2.42;94.11
53932;BME280;39844;52.496;13.482;2024-01-15T12:55:53;99050.78;;;2.29;96.31
53932;BME280;39844;52.496;13.482;2024-01-15T12:58:18;99070.59;;;2.21;97.65
53932;BME280;39844;52.496;13.482;2024-01-15T13:01:01;99063.69;;;2.17;98.61
53932;BME280;39844;52.496;13.482;2024-01-15T13:03:34;99069.72;;;2.16;98.80
53932;BME280;39844;52.496;13.482;2024-01-15T13:06:03;99068.88;;;2.17;98.65